Terminal Aerodrome Forecast
Issued by NWS

Current Version | Previous Version | Text Only | Print | Product List | Glossary On
Versions: 1 2 3 4 5 6 7 8 9 10 11 12 13 14 15 16 17
000
FTUS42 KMLB 291900 AAA
TAFLEE
TAF AMD
KLEE 291904Z 2919/3018 28010KT P6SM VCTS SCT035CB SCT060 BKN250
     FM292100 28008KT P6SM SCT035 BKN250
     FM300000 29005KT P6SM FEW040 SCT250
     FM301400 01004KT P6SM SCT025=

USA.gov is the U.S. government's official web portal to all federal, state and local government web resources and services.